sensor_id;sensor_type;location;lat;lon;timestamp;P1;durP1;ratioP1;P2;durP2;ratioP2
12768;SDS011;6448;48.916;8.990;2022-12-05T00:00:01;8.25;;;7.47;;
12768;SDS011;6448;48.916;8.990;2022-12-05T00:01:12;7.97;;;7.28;;
12768;SDS011;6448;48.916;8.990;2022-12-05T00:02:14;8.15;;;7.40;;
12768;SDS011;6448;48.916;8.990;2022-12-05T00:03:16;7.93;;;7.22;;
12768;SDS011;6448;48.916;8.990;2022-12-05T00:04:18;7.80;;;7.10;;
12768;SDS011;6448;48.916;8.990;2022-12-05T00:05:19;7.95;;;7.25;;
12768;SDS011;6448;48.916;8.990;2022-12-05T00:06:21;7.68;;;6.97;;
12768;SDS011;6448;48.916;8.990;2022-12-05T00:07:23;7.70;;;7.00;;
12768;SDS011;6448;48.916;8.990;2022-12-05T00:08:25;7.57;;;6.88;;
12768;SDS011;6448;48.916;8.990;2022-12-05T00:09:26;7.72;;;6.93;;
12768;SDS011;6448;48.916;8.990;2022-12-05T00:10:28;7.80;;;7.13;;
12768;SDS011;6448;48.916;8.990;2022-12-05T00:11:30;7.82;;;7.13;;
12768;SDS011;6448;48.916;8.990;2022-12-05T00:12:33;7.90;;;7.20;;
12768;SDS011;6448;48.916;8.990;2022-12-05T00:13:35;7.95;;;7.25;;
12768;SDS011;6448;48.916;8.990;2022-12-05T00:14:39;7.80;;;7.10;;
12768;SDS011;6448;48.916;8.990;2022-12-05T00:15:39;7.85;;;7.15;;
12768;SDS011;6448;48.916;8.990;2022-12-05T00:16:42;7.97;;;7.28;;
12768;SDS011;6448;48.916;8.990;2022-12-05T00:17:43;7.60;;;6.90;;
12768;SDS011;6448;48.916;8.990;2022-12-05T00:18:45;7.68;;;6.97;;
12768;SDS011;6448;48.916;8.990;2022-12-05T00:19:46;7.80;;;7.10;;
12768;SDS011;6448;48.916;8.990;2022-12-05T00:20:48;7.75;;;7.05;;
12768;SDS011;6448;48.916;8.990;2022-12-05T00:21:49;7.82;;;7.13;;
12768;SDS011;6448;48.916;8.990;2022-12-05T00:22:51;7.85;;;7.15;;
12768;SDS011;6448;48.916;8.990;2022-12-05T00:23:52;7.78;;;7.07;;
12768;SDS011;6448;48.916;8.990;2022-12-05T00:24:56;7.70;;;7.07;;
12768;SDS011;6448;48.916;8.990;2022-12-05T00:26:00;7.45;;;6.85;;
12768;SDS011;6448;48.916;8.990;2022-12-05T00:27:02;7.75;;;7.05;;
12768;SDS011;6448;48.916;8.990;2022-12-05T00:28:03;7.80;;;7.10;;
12768;SDS011;6448;48.916;8.990;2022-12-05T00:29:06;7.57;;;6.87;;
12768;SDS011;6448;48.916;8.990;2022-12-05T00:30:08;7.45;;;6.85;;
12768;SDS011;6448;48.916;8.990;2022-12-05T00:31:11;7.60;;;6.93;;
12768;SDS011;6448;48.916;8.990;2022-12-05T00:32:15;7.97;;;7.28;;
12768;SDS011;6448;48.916;8.990;2022-12-05T00:33:17;7.55;;;6.95;;
12768;SDS011;6448;48.916;8.990;2022-12-05T00:34:18;7.72;;;7.13;;
12768;SDS011;6448;48.916;8.990;2022-12-05T00:35:19;7.50;;;6.90;;
12768;SDS011;6448;48.916;8.990;2022-12-05T00:36:21;7.22;;;6.63;;
12768;SDS011;6448;48.916;8.990;2022-12-05T00:37:24;7.70;;;7.03;;
12768;SDS011;6448;48.916;8.990;2022-12-05T00:38:26;8.05;;;7.35;;
12768;SDS011;6448;48.916;8.990;2022-12-05T00:39:27;7.27;;;6.67;;
12768;SDS011;6448;48.916;8.990;2022-12-05T00:40:29;7.60;;;6.90;;
12768;SDS011;6448;48.916;8.990;2022-12-05T00:41:34;7.25;;;6.65;;
12768;SDS011;6448;48.916;8.990;2022-12-05T00:42:36;7.63;;;6.93;;
12768;SDS011;6448;48.916;8.990;2022-12-05T00:43:38;7.53;;;6.93;;
12768;SDS011;6448;48.916;8.990;2022-12-05T00:44:41;7.68;;;7.07;;
12768;SDS011;6448;48.916;8.990;2022-12-05T00:45:43;7.40;;;6.80;;
12768;SDS011;6448;48.916;8.990;2022-12-05T00:46:43;7.60;;;7.00;;
12768;SDS011;6448;48.916;8.990;2022-12-05T00:47:45;7.82;;;7.13;;
12768;SDS011;6448;48.916;8.990;2022-12-05T00:48:46;7.38;;;6.78;;
12768;SDS011;6448;48.916;8.990;2022-12-05T00:49:48;7.75;;;7.05;;
12768;SDS011;6448;48.916;8.990;2022-12-05T00:50:49;7.25;;;6.65;;
12768;SDS011;6448;48.916;8.990;2022-12-05T00:51:51;7.30;;;6.70;;
12768;SDS011;6448;48.916;8.990;2022-12-05T00:52:52;7.65;;;6.95;;
12768;SDS011;6448;48.916;8.990;2022-12-05T00:53:54;7.43;;;6.78;;
12768;SDS011;6448;48.916;8.990;2022-12-05T00:54:57;7.67;;;6.97;;
12768;SDS011;6448;48.916;8.990;2022-12-05T00:56:00;7.28;;;6.68;;
12768;SDS011;6448;48.916;8.990;2022-12-05T00:57:02;7.68;;;6.97;;
12768;SDS011;6448;48.916;8.990;2022-12-05T00:58:04;7.57;;;6.88;;
12768;SDS011;6448;48.916;8.990;2022-12-05T00:59:05;7.55;;;6.90;;
12768;SDS011;6448;48.916;8.990;2022-12-05T01:00:09;7.20;;;6.60;;
12768;SDS011;6448;48.916;8.990;2022-12-05T01:01:11;7.55;;;6.95;;
12768;SDS011;6448;48.916;8.990;2022-12-05T01:02:15;7.50;;;6.80;;
12768;SDS011;6448;48.916;8.990;2022-12-05T01:03:16;8.02;;;7.32;;
12768;SDS011;6448;48.916;8.990;2022-12-05T01:04:18;8.30;;;7.60;;
12768;SDS011;6448;48.916;8.990;2022-12-05T01:05:21;8.43;;;7.72;;
12768;SDS011;6448;48.916;8.990;2022-12-05T01:06:23;8.02;;;7.32;;
12768;SDS011;6448;48.916;8.990;2022-12-05T01:07:25;8.18;;;7.47;;
12768;SDS011;6448;48.916;8.990;2022-12-05T01:08:27;7.65;;;7.05;;
12768;SDS011;6448;48.916;8.990;2022-12-05T01:09:28;8.10;;;7.40;;
12768;SDS011;6448;48.916;8.990;2022-12-05T01:10:30;7.60;;;7.00;;
12768;SDS011;6448;48.916;8.990;2022-12-05T01:11:31;7.55;;;6.85;;
12768;SDS011;6448;48.916;8.990;2022-12-05T01:12:33;7.33;;;6.73;;
12768;SDS011;6448;48.916;8.990;2022-12-05T01:13:34;7.37;;;6.77;;
12768;SDS011;6448;48.916;8.990;2022-12-05T01:14:36;7.50;;;6.90;;
12768;SDS011;6448;48.916;8.990;2022-12-05T01:15:38;7.33;;;6.73;;
12768;SDS011;6448;48.916;8.990;2022-12-05T01:16:41;6.85;;;6.25;;
12768;SDS011;6448;48.916;8.990;2022-12-05T01:17:43;7.63;;;7.00;;
12768;SDS011;6448;48.916;8.990;2022-12-05T01:18:45;7.30;;;6.70;;
12768;SDS011;6448;48.916;8.990;2022-12-05T01:19:46;7.28;;;6.68;;
12768;SDS011;6448;48.916;8.990;2022-12-05T01:20:48;7.47;;;6.88;;
12768;SDS011;6448;48.916;8.990;2022-12-05T01:21:49;7.00;;;6.40;;
12768;SDS011;6448;48.916;8.990;2022-12-05T01:22:51;7.22;;;6.63;;
12768;SDS011;6448;48.916;8.990;2022-12-05T01:23:52;7.15;;;6.55;;
12768;SDS011;6448;48.916;8.990;2022-12-05T01:24:55;7.22;;;6.63;;
12768;SDS011;6448;48.916;8.990;2022-12-05T01:25:57;6.82;;;6.22;;
12768;SDS011;6448;48.916;8.990;2022-12-05T01:26:59;7.72;;;7.03;;
12768;SDS011;6448;48.916;8.990;2022-12-05T01:28:00;7.47;;;6.87;;
12768;SDS011;6448;48.916;8.990;2022-12-05T01:29:02;7.60;;;6.90;;
12768;SDS011;6448;48.916;8.990;2022-12-05T01:30:04;7.50;;;6.90;;
12768;SDS011;6448;48.916;8.990;2022-12-05T01:31:19;7.70;;;7.00;;
12768;SDS011;6448;48.916;8.990;2022-12-05T01:32:22;7.80;;;7.10;;
12768;SDS011;6448;48.916;8.990;2022-12-05T01:33:24;8.02;;;7.32;;
12768;SDS011;6448;48.916;8.990;2022-12-05T01:34:25;7.00;;;6.40;;
12768;SDS011;6448;48.916;8.990;2022-12-05T01:35:29;7.20;;;6.60;;
12768;SDS011;6448;48.916;8.990;2022-12-05T01:36:30;7.38;;;6.78;;
12768;SDS011;6448;48.916;8.990;2022-12-05T01:37:32;7.20;;;6.60;;
12768;SDS011;6448;48.916;8.990;2022-12-05T01:38:33;7.20;;;6.60;;
12768;SDS011;6448;48.916;8.990;2022-12-05T01:39:35;7.00;;;6.40;;
12768;SDS011;6448;48.916;8.990;2022-12-05T01:40:36;6.55;;;5.95;;
12768;SDS011;6448;48.916;8.990;2022-12-05T01:41:40;7.18;;;6.57;;
12768;SDS011;6448;48.916;8.990;2022-12-05T01:42:42;6.90;;;6.30;;
12768;SDS011;6448;48.916;8.990;2022-12-05T01:43:58;6.85;;;6.25;;
12768;SDS011;6448;48.916;8.990;2022-12-05T01:45:02;6.80;;;6.20;;
12768;SDS011;6448;48.916;8.990;2022-12-05T01:46:12;7.60;;;6.90;;
12768;SDS011;6448;48.916;8.990;2022-12-05T01:47:14;7.13;;;6.53;;
12768;SDS011;6448;48.916;8.990;2022-12-05T01:48:18;6.60;;;6.10;;
12768;SDS011;6448;48.916;8.990;2022-12-05T01:49:22;7.30;;;6.70;;
12768;SDS011;6448;48.916;8.990;2022-12-05T01:50:27;6.67;;;6.07;;
12768;SDS011;6448;48.916;8.990;2022-12-05T01:51:28;6.60;;;6.10;;
12768;SDS011;6448;48.916;8.990;2022-12-05T01:52:32;6.63;;;6.13;;
12768;SDS011;6448;48.916;8.990;2022-12-05T01:53:34;6.88;;;6.30;;
12768;SDS011;6448;48.916;8.990;2022-12-05T01:54:36;7.07;;;6.47;;
12768;SDS011;6448;48.916;8.990;2022-12-05T01:55:38;6.55;;;6.05;;
12768;SDS011;6448;48.916;8.990;2022-12-05T01:56:40;6.30;;;5.80;;
12768;SDS011;6448;48.916;8.990;2022-12-05T01:57:44;6.47;;;5.97;;
12768;SDS011;6448;48.916;8.990;2022-12-05T01:58:47;6.57;;;6.05;;
12768;SDS011;6448;48.916;8.990;2022-12-05T01:59:51;6.43;;;5.93;;
12768;SDS011;6448;48.916;8.990;2022-12-05T02:00:57;6.85;;;6.25;;
12768;SDS011;6448;48.916;8.990;2022-12-05T02:01:59;6.57;;;6.07;;
12768;SDS011;6448;48.916;8.990;2022-12-05T02:03:03;6.80;;;6.20;;
12768;SDS011;6448;48.916;8.990;2022-12-05T02:04:06;6.53;;;6.03;;
12768;SDS011;6448;48.916;8.990;2022-12-05T02:05:10;6.35;;;5.80;;
12768;SDS011;6448;48.916;8.990;2022-12-05T02:06:15;6.40;;;5.80;;
12768;SDS011;6448;48.916;8.990;2022-12-05T02:07:18;6.30;;;5.80;;
12768;SDS011;6448;48.916;8.990;2022-12-05T02:08:19;6.68;;;6.10;;
12768;SDS011;6448;48.916;8.990;2022-12-05T02:09:21;6.55;;;6.05;;
12768;SDS011;6448;48.916;8.990;2022-12-05T02:10:22;6.70;;;6.10;;
12768;SDS011;6448;48.916;8.990;2022-12-05T02:11:26;6.78;;;6.18;;
12768;SDS011;6448;48.916;8.990;2022-12-05T02:12:31;6.30;;;5.80;;
12768;SDS011;6448;48.916;8.990;2022-12-05T02:13:42;6.70;;;6.10;;
12768;SDS011;6448;48.916;8.990;2022-12-05T02:15:01;6.40;;;5.90;;
12768;SDS011;6448;48.916;8.990;2022-12-05T02:16:20;6.40;;;5.80;;
12768;SDS011;6448;48.916;8.990;2022-12-05T02:17:31;6.22;;;5.70;;
12768;SDS011;6448;48.916;8.990;2022-12-05T02:18:44;6.78;;;6.18;;
12768;SDS011;6448;48.916;8.990;2022-12-05T02:20:00;6.68;;;6.07;;
12768;SDS011;6448;48.916;8.990;2022-12-05T02:21:18;6.57;;;6.07;;
12768;SDS011;6448;48.916;8.990;2022-12-05T02:22:44;6.28;;;5.70;;
12768;SDS011;6448;48.916;8.990;2022-12-05T02:24:20;6.15;;;5.65;;
12768;SDS011;6448;48.916;8.990;2022-12-05T02:25:50;6.40;;;5.90;;
12768;SDS011;6448;48.916;8.990;2022-12-05T02:27:21;6.72;;;6.13;;
12768;SDS011;6448;48.916;8.990;2022-12-05T02:28:51;6.22;;;5.72;;
12768;SDS011;6448;48.916;8.990;2022-12-05T02:30:12;6.20;;;5.70;;
12768;SDS011;6448;48.916;8.990;2022-12-05T02:31:16;6.50;;;6.00;;
12768;SDS011;6448;48.916;8.990;2022-12-05T02:32:25;6.32;;;5.82;;
12768;SDS011;6448;48.916;8.990;2022-12-05T02:33:36;6.47;;;5.97;;
12768;SDS011;6448;48.916;8.990;2022-12-05T02:34:44;6.38;;;5.82;;
12768;SDS011;6448;48.916;8.990;2022-12-05T02:35:53;6.05;;;5.55;;
12768;SDS011;6448;48.916;8.990;2022-12-05T02:37:04;6.47;;;5.93;;
12768;SDS011;6448;48.916;8.990;2022-12-05T02:38:14;6.28;;;5.78;;
12768;SDS011;6448;48.916;8.990;2022-12-05T02:39:20;6.00;;;5.50;;
12768;SDS011;6448;48.916;8.990;2022-12-05T02:40:28;5.88;;;5.38;;
12768;SDS011;6448;48.916;8.990;2022-12-05T02:41:35;6.10;;;5.60;;
12768;SDS011;6448;48.916;8.990;2022-12-05T02:42:41;6.05;;;5.55;;
12768;SDS011;6448;48.916;8.990;2022-12-05T02:43:47;5.68;;;5.28;;
12768;SDS011;6448;48.916;8.990;2022-12-05T02:44:53;5.53;;;5.13;;
12768;SDS011;6448;48.916;8.990;2022-12-05T02:46:00;6.03;;;5.53;;
12768;SDS011;6448;48.916;8.990;2022-12-05T02:47:06;5.80;;;5.30;;
12768;SDS011;6448;48.916;8.990;2022-12-05T02:48:10;5.78;;;5.28;;
12768;SDS011;6448;48.916;8.990;2022-12-05T02:49:13;5.80;;;5.30;;
12768;SDS011;6448;48.916;8.990;2022-12-05T02:50:20;5.72;;;5.22;;
12768;SDS011;6448;48.916;8.990;2022-12-05T02:51:23;6.13;;;5.63;;
12768;SDS011;6448;48.916;8.990;2022-12-05T02:52:31;5.85;;;5.35;;
12768;SDS011;6448;48.916;8.990;2022-12-05T02:53:34;5.80;;;5.30;;
12768;SDS011;6448;48.916;8.990;2022-12-05T02:54:38;5.90;;;5.40;;
12768;SDS011;6448;48.916;8.990;2022-12-05T02:55:42;5.70;;;5.20;;
12768;SDS011;6448;48.916;8.990;2022-12-05T02:56:45;5.93;;;5.43;;
12768;SDS011;6448;48.916;8.990;2022-12-05T02:57:49;5.97;;;5.47;;
12768;SDS011;6448;48.916;8.990;2022-12-05T02:58:55;5.45;;;4.97;;
12768;SDS011;6448;48.916;8.990;2022-12-05T02:59:56;6.10;;;5.60;;
12768;SDS011;6448;48.916;8.990;2022-12-05T03:00:59;6.00;;;5.50;;
12768;SDS011;6448;48.916;8.990;2022-12-05T03:02:01;5.97;;;5.53;;
12768;SDS011;6448;48.916;8.990;2022-12-05T03:03:05;6.15;;;5.65;;
12768;SDS011;6448;48.916;8.990;2022-12-05T03:04:14;6.03;;;5.53;;
12768;SDS011;6448;48.916;8.990;2022-12-05T03:05:18;6.20;;;5.70;;
12768;SDS011;6448;48.916;8.990;2022-12-05T03:06:27;6.07;;;5.57;;
12768;SDS011;6448;48.916;8.990;2022-12-05T03:07:32;6.30;;;5.80;;
12768;SDS011;6448;48.916;8.990;2022-12-05T03:08:36;6.13;;;5.63;;
12768;SDS011;6448;48.916;8.990;2022-12-05T03:09:44;5.80;;;5.30;;
12768;SDS011;6448;48.916;8.990;2022-12-05T03:10:48;6.20;;;5.70;;
12768;SDS011;6448;48.916;8.990;2022-12-05T03:11:54;6.15;;;5.65;;
12768;SDS011;6448;48.916;8.990;2022-12-05T03:13:02;6.30;;;5.80;;
12768;SDS011;6448;48.916;8.990;2022-12-05T03:14:09;6.30;;;5.80;;
12768;SDS011;6448;48.916;8.990;2022-12-05T03:15:15;6.20;;;5.70;;
12768;SDS011;6448;48.916;8.990;2022-12-05T03:16:22;6.53;;;5.95;;
12768;SDS011;6448;48.916;8.990;2022-12-05T03:17:29;6.40;;;5.90;;
12768;SDS011;6448;48.916;8.990;2022-12-05T03:18:36;7.03;;;6.43;;
12768;SDS011;6448;48.916;8.990;2022-12-05T03:19:41;6.95;;;6.35;;
12768;SDS011;6448;48.916;8.990;2022-12-05T03:20:51;6.90;;;6.30;;
12768;SDS011;6448;48.916;8.990;2022-12-05T03:21:58;6.90;;;6.32;;
12768;SDS011;6448;48.916;8.990;2022-12-05T03:23:05;6.90;;;6.30;;
12768;SDS011;6448;48.916;8.990;2022-12-05T03:24:10;7.22;;;6.63;;
12768;SDS011;6448;48.916;8.990;2022-12-05T03:25:14;7.05;;;6.45;;
12768;SDS011;6448;48.916;8.990;2022-12-05T03:26:17;6.80;;;6.20;;
12768;SDS011;6448;48.916;8.990;2022-12-05T03:27:29;6.90;;;6.30;;
12768;SDS011;6448;48.916;8.990;2022-12-05T03:28:40;7.22;;;6.63;;
12768;SDS011;6448;48.916;8.990;2022-12-05T03:29:52;7.00;;;6.40;;
12768;SDS011;6448;48.916;8.990;2022-12-05T03:30:55;7.00;;;6.40;;
12768;SDS011;6448;48.916;8.990;2022-12-05T03:32:06;6.45;;;5.85;;
12768;SDS011;6448;48.916;8.990;2022-12-05T03:33:10;6.80;;;6.20;;
12768;SDS011;6448;48.916;8.990;2022-12-05T03:34:15;6.90;;;6.30;;
12768;SDS011;6448;48.916;8.990;2022-12-05T03:35:21;7.20;;;6.60;;
12768;SDS011;6448;48.916;8.990;2022-12-05T03:36:31;6.68;;;6.07;;
12768;SDS011;6448;48.916;8.990;2022-12-05T03:37:41;7.15;;;6.55;;
12768;SDS011;6448;48.916;8.990;2022-12-05T03:38:48;6.65;;;6.15;;
12768;SDS011;6448;48.916;8.990;2022-12-05T03:39:54;6.80;;;6.20;;
12768;SDS011;6448;48.916;8.990;2022-12-05T03:41:06;6.47;;;5.97;;
12768;SDS011;6448;48.916;8.990;2022-12-05T03:42:14;6.40;;;5.90;;
12768;SDS011;6448;48.916;8.990;2022-12-05T03:43:21;6.63;;;6.05;;
12768;SDS011;6448;48.916;8.990;2022-12-05T03:44:29;6.45;;;5.88;;
12768;SDS011;6448;48.916;8.990;2022-12-05T03:45:37;6.38;;;5.88;;
12768;SDS011;6448;48.916;8.990;2022-12-05T03:46:45;6.63;;;6.07;;
12768;SDS011;6448;48.916;8.990;2022-12-05T03:47:56;7.03;;;6.43;;
12768;SDS011;6448;48.916;8.990;2022-12-05T03:49:07;6.47;;;5.95;;
12768;SDS011;6448;48.916;8.990;2022-12-05T03:50:14;6.90;;;6.30;;
12768;SDS011;6448;48.916;8.990;2022-12-05T03:51:19;6.80;;;6.20;;
12768;SDS011;6448;48.916;8.990;2022-12-05T03:52:26;6.65;;;6.13;;
12768;SDS011;6448;48.916;8.990;2022-12-05T03:53:31;6.97;;;6.38;;
12768;SDS011;6448;48.916;8.990;2022-12-05T03:54:37;6.50;;;6.00;;
12768;SDS011;6448;48.916;8.990;2022-12-05T03:55:43;6.72;;;6.20;;
12768;SDS011;6448;48.916;8.990;2022-12-05T03:56:50;6.72;;;6.13;;
12768;SDS011;6448;48.916;8.990;2022-12-05T03:57:56;6.43;;;5.85;;
12768;SDS011;6448;48.916;8.990;2022-12-05T03:59:01;6.55;;;5.95;;
12768;SDS011;6448;48.916;8.990;2022-12-05T04:00:09;6.80;;;6.20;;
12768;SDS011;6448;48.916;8.990;2022-12-05T04:01:15;6.00;;;5.50;;
12768;SDS011;6448;48.916;8.990;2022-12-05T04:02:19;6.38;;;5.88;;
12768;SDS011;6448;48.916;8.990;2022-12-05T04:03:28;6.88;;;6.28;;
12768;SDS011;6448;48.916;8.990;2022-12-05T04:04:39;6.40;;;5.80;;
12768;SDS011;6448;48.916;8.990;2022-12-05T04:05:50;5.97;;;5.47;;
12768;SDS011;6448;48.916;8.990;2022-12-05T04:06:53;6.40;;;5.90;;
12768;SDS011;6448;48.916;8.990;2022-12-05T04:08:02;6.60;;;6.10;;
12768;SDS011;6448;48.916;8.990;2022-12-05T04:09:08;6.70;;;6.15;;
12768;SDS011;6448;48.916;8.990;2022-12-05T04:10:11;6.30;;;5.80;;
12768;SDS011;6448;48.916;8.990;2022-12-05T04:11:17;6.13;;;5.63;;
12768;SDS011;6448;48.916;8.990;2022-12-05T04:12:23;6.70;;;6.10;;
12768;SDS011;6448;48.916;8.990;2022-12-05T04:13:32;5.95;;;5.45;;
12768;SDS011;6448;48.916;8.990;2022-12-05T04:14:36;6.70;;;6.18;;
12768;SDS011;6448;48.916;8.990;2022-12-05T04:15:41;6.25;;;5.75;;
12768;SDS011;6448;48.916;8.990;2022-12-05T04:16:59;5.90;;;5.40;;
12768;SDS011;6448;48.916;8.990;2022-12-05T04:18:03;6.00;;;5.50;;
12768;SDS011;6448;48.916;8.990;2022-12-05T04:19:11;6.25;;;5.75;;
12768;SDS011;6448;48.916;8.990;2022-12-05T04:20:17;6.60;;;6.10;;
12768;SDS011;6448;48.916;8.990;2022-12-05T04:21:42;6.20;;;5.70;;
12768;SDS011;6448;48.916;8.990;2022-12-05T04:22:47;6.22;;;5.72;;
12768;SDS011;6448;48.916;8.990;2022-12-05T04:23:49;5.85;;;5.35;;
12768;SDS011;6448;48.916;8.990;2022-12-05T04:25:07;6.00;;;5.50;;
12768;SDS011;6448;48.916;8.990;2022-12-05T04:26:29;6.13;;;5.63;;
12768;SDS011;6448;48.916;8.990;2022-12-05T04:27:34;6.45;;;5.85;;
12768;SDS011;6448;48.916;8.990;2022-12-05T04:28:41;6.40;;;5.90;;
12768;SDS011;6448;48.916;8.990;2022-12-05T04:29:54;6.73;;;6.13;;
12768;SDS011;6448;48.916;8.990;2022-12-05T04:31:01;6.77;;;6.17;;
12768;SDS011;6448;48.916;8.990;2022-12-05T04:32:07;6.30;;;5.80;;
12768;SDS011;6448;48.916;8.990;2022-12-05T04:33:15;6.73;;;6.13;;
12768;SDS011;6448;48.916;8.990;2022-12-05T04:34:24;6.82;;;6.25;;
12768;SDS011;6448;48.916;8.990;2022-12-05T04:35:29;7.20;;;6.60;;
12768;SDS011;6448;48.916;8.990;2022-12-05T04:36:36;6.88;;;6.28;;
12768;SDS011;6448;48.916;8.990;2022-12-05T04:37:41;6.82;;;6.22;;
12768;SDS011;6448;48.916;8.990;2022-12-05T04:38:49;7.20;;;6.60;;
12768;SDS011;6448;48.916;8.990;2022-12-05T04:39:55;7.25;;;6.60;;
12768;SDS011;6448;48.916;8.990;2022-12-05T04:41:02;6.57;;;6.00;;
12768;SDS011;6448;48.916;8.990;2022-12-05T04:42:06;7.50;;;6.80;;
12768;SDS011;6448;48.916;8.990;2022-12-05T04:43:11;7.15;;;6.55;;
12768;SDS011;6448;48.916;8.990;2022-12-05T04:44:14;6.57;;;6.07;;
12768;SDS011;6448;48.916;8.990;2022-12-05T04:45:22;7.20;;;6.60;;
12768;SDS011;6448;48.916;8.990;2022-12-05T04:46:25;7.00;;;6.40;;
12768;SDS011;6448;48.916;8.990;2022-12-05T04:47:27;6.60;;;6.10;;
12768;SDS011;6448;48.916;8.990;2022-12-05T04:48:30;7.05;;;6.45;;
12768;SDS011;6448;48.916;8.990;2022-12-05T04:49:37;7.00;;;6.40;;
12768;SDS011;6448;48.916;8.990;2022-12-05T04:50:40;7.20;;;6.50;;
12768;SDS011;6448;48.916;8.990;2022-12-05T04:51:44;6.70;;;6.20;;
12768;SDS011;6448;48.916;8.990;2022-12-05T04:52:50;6.90;;;6.30;;
12768;SDS011;6448;48.916;8.990;2022-12-05T04:53:56;7.00;;;6.40;;
12768;SDS011;6448;48.916;8.990;2022-12-05T04:55:02;6.97;;;6.38;;
12768;SDS011;6448;48.916;8.990;2022-12-05T04:56:09;6.30;;;5.80;;
12768;SDS011;6448;48.916;8.990;2022-12-05T04:57:15;6.95;;;6.35;;
12768;SDS011;6448;48.916;8.990;2022-12-05T04:58:20;6.00;;;5.50;;
12768;SDS011;6448;48.916;8.990;2022-12-05T04:59:22;6.78;;;6.20;;
12768;SDS011;6448;48.916;8.990;2022-12-05T05:00:28;7.10;;;6.50;;
12768;SDS011;6448;48.916;8.990;2022-12-05T05:01:30;6.40;;;5.90;;
12768;SDS011;6448;48.916;8.990;2022-12-05T05:02:37;6.80;;;6.20;;
12768;SDS011;6448;48.916;8.990;2022-12-05T05:03:43;7.00;;;6.40;;
12768;SDS011;6448;48.916;8.990;2022-12-05T05:04:50;7.35;;;6.75;;
12768;SDS011;6448;48.916;8.990;2022-12-05T05:05:54;6.78;;;6.18;;
12768;SDS011;6448;48.916;8.990;2022-12-05T05:06:57;6.88;;;6.28;;
12768;SDS011;6448;48.916;8.990;2022-12-05T05:07:58;6.88;;;6.28;;
12768;SDS011;6448;48.916;8.990;2022-12-05T05:09:00;7.07;;;6.50;;
12768;SDS011;6448;48.916;8.990;2022-12-05T05:10:00;6.90;;;6.30;;
12768;SDS011;6448;48.916;8.990;2022-12-05T05:11:03;6.40;;;5.90;;
12768;SDS011;6448;48.916;8.990;2022-12-05T05:12:11;6.97;;;6.38;;
12768;SDS011;6448;48.916;8.990;2022-12-05T05:13:12;7.10;;;6.50;;
12768;SDS011;6448;48.916;8.990;2022-12-05T05:14:14;7.10;;;6.50;;
12768;SDS011;6448;48.916;8.990;2022-12-05T05:15:15;6.63;;;6.10;;
12768;SDS011;6448;48.916;8.990;2022-12-05T05:16:18;6.80;;;6.20;;
12768;SDS011;6448;48.916;8.990;2022-12-05T05:17:20;6.70;;;6.10;;
12768;SDS011;6448;48.916;8.990;2022-12-05T05:18:22;6.78;;;6.18;;
12768;SDS011;6448;48.916;8.990;2022-12-05T05:19:23;6.78;;;6.18;;
12768;SDS011;6448;48.916;8.990;2022-12-05T05:20:27;7.30;;;6.70;;
12768;SDS011;6448;48.916;8.990;2022-12-05T05:21:30;6.95;;;6.35;;
12768;SDS011;6448;48.916;8.990;2022-12-05T05:22:39;6.90;;;6.30;;
12768;SDS011;6448;48.916;8.990;2022-12-05T05:23:40;6.97;;;6.38;;
12768;SDS011;6448;48.916;8.990;2022-12-05T05:24:42;6.78;;;6.18;;
12768;SDS011;6448;48.916;8.990;2022-12-05T05:25:43;6.90;;;6.30;;
12768;SDS011;6448;48.916;8.990;2022-12-05T05:26:45;6.72;;;6.13;;
12768;SDS011;6448;48.916;8.990;2022-12-05T05:27:47;7.38;;;6.78;;
12768;SDS011;6448;48.916;8.990;2022-12-05T05:28:51;6.50;;;6.00;;
12768;SDS011;6448;48.916;8.990;2022-12-05T05:29:52;7.22;;;6.63;;
12768;SDS011;6448;48.916;8.990;2022-12-05T05:30:53;7.15;;;6.55;;
12768;SDS011;6448;48.916;8.990;2022-12-05T05:31:54;6.77;;;6.17;;
12768;SDS011;6448;48.916;8.990;2022-12-05T05:32:57;6.93;;;6.33;;
12768;SDS011;6448;48.916;8.990;2022-12-05T05:33:58;6.95;;;6.35;;
12768;SDS011;6448;48.916;8.990;2022-12-05T05:35:03;6.82;;;6.28;;
12768;SDS011;6448;48.916;8.990;2022-12-05T05:36:06;6.70;;;6.13;;
12768;SDS011;6448;48.916;8.990;2022-12-05T05:37:10;7.68;;;6.97;;
12768;SDS011;6448;48.916;8.990;2022-12-05T05:38:11;7.50;;;6.85;;
12768;SDS011;6448;48.916;8.990;2022-12-05T05:39:13;7.57;;;6.95;;
12768;SDS011;6448;48.916;8.990;2022-12-05T05:40:14;7.20;;;6.60;;
12768;SDS011;6448;48.916;8.990;2022-12-05T05:41:17;7.13;;;6.53;;
12768;SDS011;6448;48.916;8.990;2022-12-05T05:42:19;7.07;;;6.47;;
12768;SDS011;6448;48.916;8.990;2022-12-05T05:43:21;7.43;;;6.78;;
12768;SDS011;6448;48.916;8.990;2022-12-05T05:44:22;7.00;;;6.40;;
12768;SDS011;6448;48.916;8.990;2022-12-05T05:45:24;7.15;;;6.55;;
12768;SDS011;6448;48.916;8.990;2022-12-05T05:46:26;7.22;;;6.63;;
12768;SDS011;6448;48.916;8.990;2022-12-05T05:47:29;7.35;;;6.65;;
12768;SDS011;6448;48.916;8.990;2022-12-05T05:48:30;7.05;;;6.45;;
12768;SDS011;6448;48.916;8.990;2022-12-05T05:49:32;7.00;;;6.40;;
12768;SDS011;6448;48.916;8.990;2022-12-05T05:50:33;6.60;;;6.00;;
12768;SDS011;6448;48.916;8.990;2022-12-05T05:51:36;6.90;;;6.30;;
12768;SDS011;6448;48.916;8.990;2022-12-05T05:52:37;7.18;;;6.57;;
12768;SDS011;6448;48.916;8.990;2022-12-05T05:53:39;7.30;;;6.70;;
12768;SDS011;6448;48.916;8.990;2022-12-05T05:54:40;7.13;;;6.53;;
12768;SDS011;6448;48.916;8.990;2022-12-05T05:55:42;7.20;;;6.50;;
12768;SDS011;6448;48.916;8.990;2022-12-05T05:56:44;7.22;;;6.53;;
12768;SDS011;6448;48.916;8.990;2022-12-05T05:57:45;7.40;;;6.70;;
12768;SDS011;6448;48.916;8.990;2022-12-05T05:58:47;7.43;;;6.80;;
12768;SDS011;6448;48.916;8.990;2022-12-05T05:59:54;7.05;;;6.43;;
12768;SDS011;6448;48.916;8.990;2022-12-05T06:01:01;6.82;;;6.25;;
12768;SDS011;6448;48.916;8.990;2022-12-05T06:02:02;7.03;;;6.35;;
12768;SDS011;6448;48.916;8.990;2022-12-05T06:03:04;7.05;;;6.45;;
12768;SDS011;6448;48.916;8.990;2022-12-05T06:04:06;6.97;;;6.38;;
12768;SDS011;6448;48.916;8.990;2022-12-05T06:05:07;7.50;;;6.80;;
12768;SDS011;6448;48.916;8.990;2022-12-05T06:06:10;7.47;;;6.78;;
12768;SDS011;6448;48.916;8.990;2022-12-05T06:07:14;7.70;;;7.00;;
12768;SDS011;6448;48.916;8.990;2022-12-05T06:08:16;7.25;;;6.65;;
12768;SDS011;6448;48.916;8.990;2022-12-05T06:09:17;7.75;;;7.15;;
12768;SDS011;6448;48.916;8.990;2022-12-05T06:10:19;7.33;;;6.70;;
12768;SDS011;6448;48.916;8.990;2022-12-05T06:11:22;7.88;;;7.18;;
12768;SDS011;6448;48.916;8.990;2022-12-05T06:12:24;8.18;;;7.47;;
12768;SDS011;6448;48.916;8.990;2022-12-05T06:13:26;7.65;;;6.95;;
12768;SDS011;6448;48.916;8.990;2022-12-05T06:14:27;8.18;;;7.40;;
12768;SDS011;6448;48.916;8.990;2022-12-05T06:15:29;7.85;;;7.15;;
12768;SDS011;6448;48.916;8.990;2022-12-05T06:16:31;7.80;;;7.10;;
12768;SDS011;6448;48.916;8.990;2022-12-05T06:17:32;7.80;;;7.10;;
12768;SDS011;6448;48.916;8.990;2022-12-05T06:18:34;7.80;;;7.10;;
12768;SDS011;6448;48.916;8.990;2022-12-05T06:19:35;8.30;;;7.60;;
12768;SDS011;6448;48.916;8.990;2022-12-05T06:20:37;8.20;;;7.50;;
12768;SDS011;6448;48.916;8.990;2022-12-05T06:21:44;7.72;;;7.10;;
12768;SDS011;6448;48.916;8.990;2022-12-05T06:22:54;7.85;;;7.15;;
12768;SDS011;6448;48.916;8.990;2022-12-05T06:23:55;7.72;;;7.03;;
12768;SDS011;6448;48.916;8.990;2022-12-05T06:24:57;7.80;;;7.10;;
12768;SDS011;6448;48.916;8.990;2022-12-05T06:25:59;7.65;;;6.95;;
12768;SDS011;6448;48.916;8.990;2022-12-05T06:27:00;7.60;;;7.00;;
12768;SDS011;6448;48.916;8.990;2022-12-05T06:28:02;7.82;;;7.13;;
12768;SDS011;6448;48.916;8.990;2022-12-05T06:29:03;7.40;;;6.80;;
12768;SDS011;6448;48.916;8.990;2022-12-05T06:30:05;7.97;;;7.25;;
12768;SDS011;6448;48.916;8.990;2022-12-05T06:31:07;8.20;;;7.50;;
12768;SDS011;6448;48.916;8.990;2022-12-05T06:32:10;7.70;;;7.00;;
12768;SDS011;6448;48.916;8.990;2022-12-05T06:33:12;7.63;;;6.93;;
12768;SDS011;6448;48.916;8.990;2022-12-05T06:34:14;7.40;;;6.80;;
12768;SDS011;6448;48.916;8.990;2022-12-05T06:35:22;7.40;;;6.75;;